Avoca, Michigan
Current Conditions -  °F | °C
As of 9:36 AM on Saturday 22 Nov 2014 (Local Time) from KPHN Reporting Station
Overcast Overcast  
Wind Chill: -5°   Ceiling: 1000
Heat Index:   Visibility: 7mi
Dew Point: -1°   Wind: 10mph
Humidity: 93%   Direction: 200°SSW
Pressure: 30.08"   Gusts: 16mph
Location:  43.06°N, 82.69°W
Report Text: KPHN 221436Z AUTO 20009G14KT 7SM BKN010 OVC015 00/M01 A3008 RMK AO2
Loading
Personal Weather Stations






























Interactive Weather Map New forecast layout! Learn more

10-Day Weather Forecast

Advertisements
Track Severe Weather on mobile